17 août 2022

Temps Code Temps Temp. Vue Base cloud Vent METAR/SPECI
12:50
V
23 °C 10 km+ - 230° 230° 11 kt METAR EDDL 171050Z AUTO 23011KT 9999 -SHRA FEW///TCU 23/16 Q1011 NOSIG
12:20
V
23 °C 10 km+ - 220° 220° 10 kt METAR EDDL 171020Z AUTO 22010KT 9999 VCSH FEW///TCU 23/16 Q1010
11:50
V
23 °C 10 km+ - 220° 220° 11 kt METAR EDDL 170950Z AUTO 22011KT CAVOK 23/16 Q1010 NOSIG
11:20
V
23 °C 10 km+ - 230° 230° 7 kt METAR EDDL 170920Z AUTO 23007KT CAVOK 23/16 Q1010
10:50
V
24 °C 10 km+ - 220° 220° 8 kt METAR EDDL 170850Z AUTO 22008KT CAVOK 24/15 Q1010 NOSIG
10:20
V
23 °C 10 km+ - 250° 250° 6 kt METAR EDDL 170820Z AUTO 25006KT 220V280 CAVOK 23/16 Q1010 NOSIG
09:50
V
23 °C 10 km+ - 240° 240° 8 kt METAR EDDL 170750Z AUTO 24008KT CAVOK 23/15 Q1010 NOSIG
09:20
V
23 °C 10 km+ - 230° 230° 8 kt METAR EDDL 170720Z AUTO 23008KT CAVOK 23/15 Q1010 NOSIG
08:50
V
23 °C 10 km+ - 200° 200° 7 kt METAR EDDL 170650Z AUTO 20007KT 170V230 CAVOK 23/14 Q1009 NOSIG
08:20
V
22 °C 10 km+ - 220° 220° 11 kt METAR EDDL 170620Z AUTO 22011KT 190V250 CAVOK 22/14 Q1009 NOSIG
07:50
V
21 °C 10 km+ - 140° 140° 3 kt METAR EDDL 170550Z AUTO 14003KT 080V190 CAVOK 21/14 Q1009 NOSIG
07:20
V
20 °C 10 km+ - 110° 110° 3 kt METAR EDDL 170520Z AUTO 11003KT 070V140 CAVOK 20/14 Q1009 NOSIG
06:50
V
19 °C 10 km+ - 140° 140° 3 kt METAR EDDL 170450Z AUTO 14003KT 090V200 CAVOK 19/14 Q1009 NOSIG
06:20
V
18 °C 10 km+ - 130° 130° 4 kt METAR EDDL 170420Z AUTO 13004KT 100V170 CAVOK 18/14 Q1009 NOSIG
05:50
V
18 °C 10 km+ - 110° 110° 4 kt METAR EDDL 170350Z AUTO 11004KT CAVOK 18/14 Q1009 NOSIG
05:20
V
18 °C 10 km+ - 040° 040° 2 kt METAR EDDL 170320Z AUTO 04002KT CAVOK 18/14 Q1009 NOSIG
04:50
V
19 °C 10 km+ - Var Var 2 kt METAR EDDL 170250Z AUTO VRB02KT CAVOK 19/14 Q1009 NOSIG
04:20
V
18 °C 10 km+ - 090° 090° 4 kt METAR EDDL 170220Z AUTO 09004KT CAVOK 18/14 Q1009 NOSIG
03:50
V
19 °C 10 km+ - 030° 030° 2 kt METAR EDDL 170150Z AUTO 03002KT CAVOK 19/14 Q1009 NOSIG
03:20
V
20 °C 10 km+ - 010° 010° 3 kt METAR EDDL 170120Z AUTO 01003KT CAVOK 20/14 Q1009 NOSIG
02:50
V
21 °C 10 km+ - Var Var 2 kt METAR EDDL 170050Z AUTO VRB02KT CAVOK 21/14 Q1009 NOSIG
02:20
V
21 °C 10 km+ - 020° 020° 4 kt METAR EDDL 170020Z AUTO 02004KT CAVOK 21/14 Q1009 NOSIG
01:50
V
22 °C 10 km+ - 030° 030° 5 kt METAR EDDL 162350Z AUTO 03005KT CAVOK 22/14 Q1009 NOSIG
01:20
V
22 °C 10 km+ - 040° 040° 5 kt METAR EDDL 162320Z AUTO 04005KT CAVOK 22/14 Q1009 NOSIG
00:50
V
22 °C 10 km+ - 030° 030° 4 kt METAR EDDL 162250Z AUTO 03004KT CAVOK 22/14 Q1010 NOSIG
00:20
V
23 °C 10 km+ - 360° 360° 3 kt METAR EDDL 162220Z AUTO 36003KT CAVOK 23/14 Q1010 NOSIG

16 août 2022

Temps Code Temps Temp. Vue Base cloud Vent METAR/SPECI
23:50
V
23 °C 10 km+ - 030° 030° 3 kt METAR EDDL 162150Z AUTO 03003KT CAVOK 23/14 Q1010 NOSIG
23:20
V
23 °C 10 km+ - 060° 060° 3 kt METAR EDDL 162120Z AUTO 06003KT CAVOK 23/14 Q1010 NOSIG
22:50
V
23 °C 10 km+ - 030° 030° 4 kt METAR EDDL 162050Z AUTO 03004KT CAVOK 23/13 Q1010 NOSIG
22:20
V
23 °C 10 km+ - 030° 030° 4 kt METAR EDDL 162020Z AUTO 03004KT CAVOK 23/14 Q1009 NOSIG
21:50
V
24 °C 10 km+ - 020° 020° 4 kt METAR EDDL 161950Z AUTO 02004KT CAVOK 24/13 Q1009 NOSIG
21:20
V
26 °C 10 km+ - 010° 010° 4 kt METAR EDDL 161920Z AUTO 01004KT CAVOK 26/13 Q1009 NOSIG
20:50
V
27 °C 10 km+ - 360° 360° 6 kt METAR EDDL 161850Z AUTO 36006KT CAVOK 27/13 Q1009 NOSIG
20:20
V
28 °C 10 km+ - 320° 320° 4 kt METAR EDDL 161820Z AUTO 32004KT CAVOK 28/13 Q1008 NOSIG
19:50
V
29 °C 10 km+ - Var Var 2 kt METAR EDDL 161750Z AUTO VRB02KT CAVOK 29/12 Q1008 NOSIG
19:20
V
29 °C 10 km+ - 250° 250° 3 kt METAR EDDL 161720Z AUTO 25003KT 200V310 CAVOK 29/12 Q1008 NOSIG
18:50
V
30 °C 10 km+ - 300° 300° 4 kt METAR EDDL 161650Z AUTO 30004KT 260V360 CAVOK 30/12 Q1008 NOSIG
18:20
V
29 °C 10 km+ - 280° 280° 5 kt METAR EDDL 161620Z AUTO 28005KT 250V330 CAVOK 29/13 Q1008 NOSIG
17:50
V
29 °C 10 km+ - 250° 250° 5 kt METAR EDDL 161550Z AUTO 25005KT 220V290 CAVOK 29/13 Q1008 NOSIG
17:20
V
31 °C 10 km+ - 290° 290° 4 kt METAR EDDL 161520Z AUTO 29004KT 240V360 CAVOK 31/13 Q1008 NOSIG
16:50
V
29 °C 10 km+ - 270° 270° 6 kt METAR EDDL 161450Z AUTO 27006KT 210V310 CAVOK 29/13 Q1008 NOSIG
16:20
V
29 °C 10 km+ - 230° 230° 5 kt METAR EDDL 161420Z AUTO 23005KT 200V310 CAVOK 29/13 Q1008 NOSIG
15:50
V
30 °C 10 km+ - 280° 280° 7 kt METAR EDDL 161350Z AUTO 28007KT 220V330 CAVOK 30/13 Q1008 NOSIG
15:20
V
29 °C 10 km+ - 260° 260° 10 kt METAR EDDL 161320Z AUTO 26010KT 210V300 CAVOK 29/13 Q1008 NOSIG
14:50
V
28 °C 10 km+ - 210° 210° 8 kt METAR EDDL 161250Z AUTO 21008KT 170V280 9999 -SHRA FEW///TCU 28/14 Q1008 NOSIG
14:20
V
30 °C 10 km+ - 170° 170° 9 kt METAR EDDL 161220Z AUTO 17009KT 120V230 CAVOK 30/14 Q1008 NOSIG
13:50
V
28 °C 10 km+ - Var Var 3 kt METAR EDDL 161150Z AUTO VRB03KT CAVOK 28/14 Q1008 NOSIG
13:20
V
29 °C 10 km+ - 190° 190° 7 kt METAR EDDL 161120Z AUTO 19007KT 150V250 CAVOK 29/15 Q1008 NOSIG
12:50
V
28 °C 10 km+ - Var Var 5 kt METAR EDDL 161050Z AUTO VRB05KT CAVOK 28/15 Q1008 NOSIG
12:20
V
27 °C 10 km+ - 180° 180° 7 kt METAR EDDL 161020Z AUTO 18007KT 140V250 CAVOK 27/15 Q1008 NOSIG
11:50
V
27 °C 10 km+ - 200° 200° 6 kt METAR EDDL 160950Z AUTO 20006KT 150V270 CAVOK 27/15 Q1008 NOSIG
11:20
V
26 °C 10 km+ - 180° 180° 5 kt METAR EDDL 160920Z AUTO 18005KT 120V240 CAVOK 26/16 Q1008 NOSIG
10:50
V
25 °C 10 km+ - 200° 200° 5 kt METAR EDDL 160850Z AUTO 20005KT 150V270 CAVOK 25/16 Q1008 NOSIG
10:20
V
24 °C 10 km+ - 230° 230° 6 kt METAR EDDL 160820Z AUTO 23006KT 200V280 CAVOK 24/15 Q1008 NOSIG
09:50
V
23 °C 10 km+ - 190° 190° 6 kt METAR EDDL 160750Z AUTO 19006KT 150V240 CAVOK 23/15 Q1008 NOSIG
09:20
V
22 °C 10 km+ - 210° 210° 7 kt METAR EDDL 160720Z AUTO 21007KT CAVOK 22/15 Q1008 NOSIG
08:50
V
22 °C 10 km+ - 190° 190° 6 kt METAR EDDL 160650Z AUTO 19006KT 160V240 CAVOK 22/15 Q1008 NOSIG
08:20
V
22 °C 10 km+ - 180° 180° 5 kt METAR EDDL 160620Z AUTO 18005KT 150V230 CAVOK 22/15 Q1008 NOSIG
07:50
V
20 °C 10 km+ - 150° 150° 5 kt METAR EDDL 160550Z AUTO 15005KT CAVOK 20/15 Q1007 NOSIG
07:20
V
19 °C 10 km+ - 160° 160° 5 kt METAR EDDL 160520Z AUTO 16005KT 130V190 CAVOK 19/15 Q1007 NOSIG
06:50
V
19 °C 10 km+ - 160° 160° 6 kt METAR EDDL 160450Z AUTO 16006KT CAVOK 19/15 Q1007 NOSIG
06:20
V
19 °C 10 km+ - 150° 150° 7 kt METAR EDDL 160420Z AUTO 15007KT CAVOK 19/15 Q1007 NOSIG
05:50
V
19 °C 10 km+ - 150° 150° 8 kt METAR EDDL 160350Z AUTO 15008KT CAVOK 19/15 Q1007 NOSIG
05:20
V
19 °C 10 km+ - 150° 150° 7 kt METAR EDDL 160320Z AUTO 15007KT CAVOK 19/15 Q1007 NOSIG
04:50
V
20 °C 10 km+ - 140° 140° 5 kt METAR EDDL 160250Z AUTO 14005KT CAVOK 20/15 Q1006 NOSIG
04:20
V
21 °C 10 km+ - 180° 180° 7 kt METAR EDDL 160220Z AUTO 18007KT CAVOK 21/15 Q1007 NOSIG
03:50
V
21 °C 10 km+ - 190° 190° 8 kt METAR EDDL 160150Z AUTO 19008KT CAVOK 21/15 Q1006 NOSIG
03:20
V
21 °C 10 km+ - 190° 190° 6 kt METAR EDDL 160120Z AUTO 19006KT 160V220 CAVOK 21/15 Q1007 NOSIG
02:50
V
21 °C 10 km+ - 220° 220° 6 kt METAR EDDL 160050Z AUTO 22006KT 180V240 CAVOK 21/15 Q1007 NOSIG
02:20
V
19 °C 10 km+ - 170° 170° 4 kt METAR EDDL 160020Z AUTO 17004KT 150V230 CAVOK 19/15 Q1006 NOSIG
01:50
V
19 °C 10 km+ - 170° 170° 3 kt METAR EDDL 152350Z AUTO 17003KT CAVOK 19/15 Q1006 NOSIG
01:20
V
20 °C 10 km+ - 110° 110° 3 kt METAR EDDL 152320Z AUTO 11003KT CAVOK 20/15 Q1006 NOSIG
00:50
V
20 °C 10 km+ - 090° 090° 3 kt METAR EDDL 152250Z AUTO 09003KT CAVOK 20/15 Q1006 NOSIG
00:20
V
20 °C 10 km+ - 110° 110° 4 kt METAR EDDL 152220Z AUTO 11004KT CAVOK 20/15 Q1006 NOSIG

15 août 2022

Temps Code Temps Temp. Vue Base cloud Vent METAR/SPECI
23:50
V
20 °C 10 km+ - 080° 080° 3 kt METAR EDDL 152150Z AUTO 08003KT 010V170 CAVOK 20/15 Q1006 NOSIG
23:20
V
21 °C 10 km+ - 160° 160° 4 kt METAR EDDL 152120Z AUTO 16004KT CAVOK 21/14 Q1006 NOSIG
22:50
V
21 °C 10 km+ - 160° 160° 4 kt METAR EDDL 152050Z AUTO 16004KT 9999 FEW001 21/15 Q1006 NOSIG
22:20
V
22 °C 10 km+ - 190° 190° 5 kt METAR EDDL 152020Z AUTO 19005KT CAVOK 22/14 Q1006 NOSIG
21:50
V
23 °C 10 km+ - 200° 200° 6 kt METAR EDDL 151950Z AUTO 20006KT CAVOK 23/15 Q1006 NOSIG
21:20
V
23 °C 10 km+ - 240° 240° 5 kt METAR EDDL 151920Z AUTO 24005KT CAVOK 23/15 Q1005 NOSIG
20:50
V
23 °C 10 km+ - 230° 230° 4 kt METAR EDDL 151850Z AUTO 23004KT CAVOK 23/15 Q1005 NOSIG
20:20
V
24 °C 10 km+ - 200° 200° 6 kt METAR EDDL 151820Z AUTO 20006KT CAVOK 24/15 Q1005 NOSIG
19:50
V
25 °C 10 km+ - 200° 200° 6 kt METAR EDDL 151750Z AUTO 20006KT CAVOK 25/14 Q1004 NOSIG
19:20
V
26 °C 10 km+ - 190° 190° 7 kt METAR EDDL 151720Z AUTO 19007KT 160V230 CAVOK 26/14 Q1004 NOSIG
18:50
V
26 °C 10 km+ - 200° 200° 7 kt METAR EDDL 151650Z AUTO 20007KT 170V240 CAVOK 26/14 Q1004 NOSIG
18:20
V
26 °C 10 km+ - 180° 180° 8 kt METAR EDDL 151620Z AUTO 18008KT 160V220 9999 FEW041 26/15 Q1005 NOSIG
17:50
V
26 °C 10 km+ - 180° 180° 7 kt METAR EDDL 151550Z AUTO 18007KT 150V220 CAVOK 26/15 Q1005 NOSIG
17:20
V
26 °C 10 km+ - 200° 200° 7 kt METAR EDDL 151520Z AUTO 20007KT 160V230 CAVOK 26/16 Q1005 NOSIG
16:50
V
25 °C 10 km+ - 200° 200° 6 kt METAR EDDL 151450Z AUTO 20006KT 130V260 CAVOK 25/16 Q1005 NOSIG
16:20
V
24 °C 10 km+ - 180° 180° 8 kt METAR EDDL 151420Z AUTO 18008KT 150V230 CAVOK 24/16 Q1005 NOSIG
15:50
V
24 °C 10 km+ - 180° 180° 8 kt METAR EDDL 151350Z AUTO 18008KT 160V220 9999 -SHRA FEW032 FEW///TCU 24/16 Q1005 NOSIG
15:20
V
24 °C 10 km+ - 210° 210° 8 kt METAR EDDL 151320Z AUTO 21008KT 170V240 CAVOK 24/16 Q1005 NOSIG
14:50
V
24 °C 10 km+ - 220° 220° 10 kt METAR EDDL 151250Z AUTO 22010KT 9999 VCSH FEW///TCU 24/16 Q1005 NOSIG
14:20
V
23 °C 10 km+ - 210° 210° 11 kt METAR EDDL 151220Z AUTO 21011KT 9999 -SHRA FEW028 FEW///TCU 23/16 Q1005 NOSIG
13:50
V
24 °C 10 km+ - 200° 200° 11 kt METAR EDDL 151150Z AUTO 20011KT CAVOK 24/16 Q1005 NOSIG
13:20
V
24 °C 10 km+ - 210° 210° 10 kt METAR EDDL 151120Z AUTO 21010KT CAVOK 24/16 Q1005 NOSIG
12:50
V
23 °C 10 km+ - 230° 230° 10 kt METAR EDDL 151050Z AUTO 23010KT CAVOK 23/16 Q1005 NOSIG
Données plus anciennes

Nous et des tiers suivons ton comportement sur Internet sur notre site Web à l'aide de cookies. Si tu continues, nous supposons que tu acceptes notre politique en matière de cookies. Apprendre plus